createdAt,value
2022-12-24T00:01:23.076Z,0.80
2022-12-24T00:03:51.445Z,0.70
2022-12-24T00:06:22.090Z,1.00
2022-12-24T00:08:51.351Z,0.63
2022-12-24T00:11:19.665Z,0.83
2022-12-24T00:13:47.851Z,0.70
2022-12-24T00:16:15.153Z,0.97
2022-12-24T00:18:46.256Z,0.90
2022-12-24T00:21:17.887Z,0.90
2022-12-24T00:23:46.715Z,1.10
2022-12-24T00:26:14.764Z,1.13
2022-12-24T00:28:43.149Z,1.20
2022-12-24T00:31:17.046Z,1.63
2022-12-24T00:33:48.747Z,1.10
2022-12-24T00:36:18.845Z,1.10
2022-12-24T00:38:47.226Z,1.00
2022-12-24T00:41:25.546Z,0.90
2022-12-24T00:43:57.944Z,1.10
2022-12-24T00:46:27.531Z,1.47
2022-12-24T00:48:56.060Z,1.17
2022-12-24T00:51:25.757Z,0.90
2022-12-24T00:53:54.006Z,1.00
2022-12-24T00:56:21.432Z,1.27
2022-12-24T00:58:49.586Z,1.13
2022-12-24T01:01:17.890Z,1.40
2022-12-24T01:03:45.989Z,1.33
2022-12-24T01:06:19.526Z,1.10
2022-12-24T01:08:46.777Z,1.00
2022-12-24T01:11:14.462Z,0.97
2022-12-24T01:13:42.105Z,1.30
2022-12-24T01:16:20.024Z,0.73
2022-12-24T01:18:47.737Z,1.00
2022-12-24T01:21:16.581Z,1.20
2022-12-24T01:23:45.089Z,0.97
2022-12-24T01:26:12.867Z,1.00
2022-12-24T01:28:41.670Z,1.03
2022-12-24T01:31:14.976Z,1.10
2022-12-24T01:33:43.420Z,0.70
2022-12-24T01:36:12.366Z,1.13
2022-12-24T01:38:40.847Z,1.00
2022-12-24T01:41:35.660Z,1.60
2022-12-24T01:44:35.157Z,0.90
2022-12-24T01:47:25.591Z,0.90
2022-12-24T01:49:58.064Z,0.93
2022-12-24T01:52:33.217Z,1.17
2022-12-24T01:55:17.611Z,0.83
2022-12-24T01:57:49.120Z,1.10
2022-12-24T02:00:17.303Z,0.80
2022-12-24T02:02:48.421Z,1.10
2022-12-24T02:05:18.909Z,0.90
2022-12-24T02:07:47.640Z,0.70
2022-12-24T02:10:17.267Z,1.10
2022-12-24T02:12:45.205Z,0.90
2022-12-24T02:15:15.131Z,1.10
2022-12-24T02:17:56.346Z,0.90
2022-12-24T02:20:35.604Z,0.83
2022-12-24T02:23:25.748Z,1.00
2022-12-24T02:26:18.217Z,0.77
2022-12-24T02:29:04.294Z,0.93
2022-12-24T02:31:43.600Z,0.87
2022-12-24T02:34:16.886Z,1.20
2022-12-24T02:36:50.273Z,1.10
2022-12-24T02:39:50.158Z,0.93
2022-12-24T02:42:24.015Z,0.90
2022-12-24T02:45:00.755Z,0.67
2022-12-24T02:47:33.571Z,0.90
2022-12-24T02:50:04.456Z,0.90
2022-12-24T02:52:37.389Z,0.90
2022-12-24T02:55:21.817Z,0.80
2022-12-24T02:58:22.025Z,0.73
2022-12-24T03:01:20.161Z,0.87
2022-12-24T03:04:20.121Z,0.53
2022-12-24T03:06:57.866Z,0.80
2022-12-24T03:09:37.935Z,0.90
2022-12-24T03:12:18.123Z,0.87
2022-12-24T03:14:48.302Z,0.80
2022-12-24T03:17:19.038Z,1.07
2022-12-24T03:19:48.788Z,1.23
2022-12-24T03:22:17.143Z,0.60
2022-12-24T03:24:44.830Z,0.60
2022-12-24T03:27:13.087Z,0.77
2022-12-24T03:29:41.072Z,0.80
2022-12-24T03:32:08.402Z,0.90
2022-12-24T03:34:35.378Z,0.80
2022-12-24T03:37:03.229Z,0.73
2022-12-24T03:39:30.187Z,1.00
2022-12-24T03:41:57.064Z,0.80
2022-12-24T03:44:24.643Z,0.83
2022-12-24T03:46:52.174Z,1.00
2022-12-24T03:49:19.811Z,0.90
2022-12-24T03:51:46.771Z,0.90
2022-12-24T03:54:14.444Z,0.97
2022-12-24T03:56:42.166Z,0.60
2022-12-24T03:59:09.757Z,0.70
2022-12-24T04:01:38.374Z,0.87
2022-12-24T04:04:05.340Z,0.73
2022-12-24T04:06:33.080Z,0.67
2022-12-24T04:09:01.820Z,0.70
2022-12-24T04:11:29.409Z,0.57
2022-12-24T04:13:56.279Z,0.60
2022-12-24T04:16:23.635Z,0.70
2022-12-24T04:18:51.263Z,0.60
2022-12-24T04:21:19.011Z,0.73
2022-12-24T04:23:47.982Z,0.60
2022-12-24T04:26:15.849Z,0.57
2022-12-24T04:28:43.851Z,0.50
2022-12-24T04:31:17.500Z,0.80
2022-12-24T04:33:45.937Z,0.80
2022-12-24T04:36:17.127Z,0.50
2022-12-24T04:38:46.991Z,0.60
2022-12-24T04:41:23.830Z,0.73
2022-12-24T04:43:55.383Z,0.80
2022-12-24T04:46:26.352Z,0.50
2022-12-24T04:48:55.407Z,0.40
2022-12-24T04:51:24.477Z,0.70
2022-12-24T04:53:53.289Z,0.50
2022-12-24T04:56:25.035Z,0.77
2022-12-24T04:58:53.916Z,0.50
2022-12-24T05:01:24.764Z,0.50
2022-12-24T05:03:53.537Z,0.60
2022-12-24T05:06:25.446Z,0.43
2022-12-24T05:08:56.087Z,0.57
2022-12-24T05:11:25.613Z,0.53
2022-12-24T05:13:53.566Z,0.53
2022-12-24T05:16:22.441Z,0.60
2022-12-24T05:18:50.875Z,0.63
2022-12-24T05:21:21.595Z,0.40
2022-12-24T05:24:09.538Z,0.60
2022-12-24T05:26:42.580Z,0.67
2022-12-24T05:29:12.362Z,0.50
2022-12-24T05:31:40.880Z,0.60
2022-12-24T05:34:11.128Z,0.63
2022-12-24T05:36:39.190Z,0.60
2022-12-24T05:39:13.355Z,0.50
2022-12-24T05:41:44.155Z,0.50
2022-12-24T05:44:11.912Z,0.63
2022-12-24T05:46:39.724Z,0.70
2022-12-24T05:49:06.753Z,0.97
2022-12-24T05:51:34.488Z,0.70
2022-12-24T05:54:02.278Z,0.73
2022-12-24T05:56:29.955Z,0.67
2022-12-24T05:58:58.092Z,0.60
2022-12-24T06:01:25.915Z,0.57
2022-12-24T06:03:53.462Z,0.70
2022-12-24T06:06:23.606Z,0.50
2022-12-24T06:08:53.605Z,0.57
2022-12-24T06:11:24.301Z,0.60
2022-12-24T06:13:52.445Z,0.70
2022-12-24T06:16:22.066Z,0.60
2022-12-24T06:18:49.998Z,0.70
2022-12-24T06:21:18.329Z,0.50
2022-12-24T06:23:48.111Z,0.47
2022-12-24T06:26:19.161Z,0.90
2022-12-24T06:28:48.627Z,0.60
2022-12-24T06:31:19.786Z,0.70
2022-12-24T06:33:47.588Z,0.70
2022-12-24T06:36:18.528Z,0.70
2022-12-24T06:38:47.495Z,0.50
2022-12-24T06:41:16.753Z,0.73
2022-12-24T06:43:49.364Z,0.50
2022-12-24T06:46:18.640Z,0.60
2022-12-24T06:48:47.815Z,1.13
2022-12-24T06:51:16.927Z,0.70
2022-12-24T06:53:44.544Z,0.77
2022-12-24T06:56:13.790Z,0.80
2022-12-24T06:58:41.789Z,0.87
2022-12-24T07:01:12.673Z,0.80
2022-12-24T07:03:40.077Z,0.60
2022-12-24T07:06:07.897Z,0.70
2022-12-24T07:08:36.373Z,0.80
2022-12-24T07:11:03.615Z,0.70
2022-12-24T07:13:33.160Z,0.70
2022-12-24T07:16:02.520Z,0.70
2022-12-24T07:18:31.599Z,0.70
2022-12-24T07:20:59.404Z,1.00
2022-12-24T07:23:27.323Z,0.70
2022-12-24T07:25:54.928Z,0.80
2022-12-24T07:28:27.899Z,0.53
2022-12-24T07:30:57.220Z,0.90
2022-12-24T07:33:26.340Z,0.73
2022-12-24T07:36:20.724Z,0.80
2022-12-24T07:38:49.417Z,1.20
2022-12-24T07:41:17.359Z,1.23
2022-12-24T07:43:44.496Z,1.03
2022-12-24T07:46:11.645Z,1.10
2022-12-24T07:48:38.914Z,0.87
2022-12-24T07:51:06.571Z,1.00
2022-12-24T07:53:34.190Z,1.00
2022-12-24T07:56:04.238Z,1.00
2022-12-24T07:58:35.189Z,1.00
2022-12-24T08:01:03.477Z,1.07
2022-12-24T08:03:31.298Z,1.43
2022-12-24T08:05:59.165Z,1.07
2022-12-24T08:08:27.805Z,0.87
2022-12-24T08:11:02.779Z,1.20
2022-12-24T08:13:31.387Z,1.30
2022-12-24T08:15:58.700Z,1.20
2022-12-24T08:18:26.603Z,1.23
2022-12-24T08:20:54.495Z,1.57
2022-12-24T08:23:22.174Z,1.30
2022-12-24T08:25:49.937Z,1.37
2022-12-24T08:28:19.676Z,0.90
2022-12-24T08:30:49.828Z,1.30
2022-12-24T08:33:17.936Z,1.13
2022-12-24T08:35:53.664Z,1.30
2022-12-24T08:38:22.639Z,1.10
2022-12-24T08:40:52.936Z,2.30
2022-12-24T08:43:22.747Z,1.47
2022-12-24T08:45:51.667Z,1.40
2022-12-24T08:48:18.720Z,1.33
2022-12-24T08:50:46.726Z,1.70
2022-12-24T08:53:15.210Z,1.77
2022-12-24T08:55:42.427Z,1.03
2022-12-24T08:58:10.742Z,1.50
2022-12-24T09:00:39.173Z,1.30
2022-12-24T09:03:07.585Z,1.30
2022-12-24T09:05:34.557Z,1.30
2022-12-24T09:08:02.161Z,1.30
2022-12-24T09:10:29.710Z,1.30
2022-12-24T09:12:57.354Z,1.97
2022-12-24T09:15:25.709Z,1.30
2022-12-24T09:17:54.062Z,1.47
2022-12-24T09:20:20.939Z,1.67
2022-12-24T09:22:49.978Z,1.40
2022-12-24T09:25:17.674Z,1.53
2022-12-24T09:27:45.279Z,2.10
2022-12-24T09:30:13.676Z,1.80
2022-12-24T09:32:41.306Z,1.70
2022-12-24T09:35:09.303Z,2.00
2022-12-24T09:37:37.790Z,4.00
2022-12-24T09:40:06.855Z,2.00
2022-12-24T09:42:53.591Z,1.93
2022-12-24T09:45:29.568Z,1.80
2022-12-24T09:48:13.850Z,2.40
2022-12-24T09:51:02.211Z,1.60
2022-12-24T09:53:48.359Z,1.60
2022-12-24T09:56:21.220Z,1.80
2022-12-24T09:58:54.551Z,2.30
2022-12-24T10:01:22.239Z,1.90
2022-12-24T10:03:52.388Z,1.83
2022-12-24T10:06:57.940Z,2.33
2022-12-24T10:09:41.101Z,1.93
2022-12-24T10:12:18.328Z,2.07
2022-12-24T10:15:10.112Z,1.73
2022-12-24T10:17:56.581Z,1.60
2022-12-24T10:20:49.120Z,2.03
2022-12-24T10:23:38.435Z,2.00
2022-12-24T10:26:20.445Z,1.73
2022-12-24T10:29:23.592Z,1.90
2022-12-24T10:32:17.427Z,1.63
2022-12-24T10:34:53.774Z,1.67
2022-12-24T10:37:24.725Z,1.40
2022-12-24T10:39:53.933Z,2.03
2022-12-24T10:42:25.289Z,1.70
2022-12-24T10:45:02.448Z,1.90
2022-12-24T10:47:34.765Z,1.70
2022-12-24T10:50:26.138Z,1.63
2022-12-24T10:53:02.059Z,1.57
2022-12-24T10:55:30.554Z,1.50
2022-12-24T10:58:05.121Z,1.57
2022-12-24T11:00:36.616Z,1.40
2022-12-24T11:03:33.718Z,1.60
2022-12-24T11:06:07.622Z,1.80
2022-12-24T11:08:37.185Z,1.60
2022-12-24T11:11:09.400Z,1.33
2022-12-24T11:13:41.446Z,1.30
2022-12-24T11:16:18.492Z,1.40
2022-12-24T11:18:52.371Z,1.03
2022-12-24T11:21:30.158Z,1.40
2022-12-24T11:24:12.596Z,1.30
2022-12-24T11:26:42.904Z,1.63
2022-12-24T11:29:27.006Z,1.10
2022-12-24T11:32:19.028Z,1.30
2022-12-24T11:34:46.697Z,1.40
2022-12-24T11:37:23.997Z,1.33
2022-12-24T11:40:00.636Z,1.30
2022-12-24T11:42:38.105Z,1.27
2022-12-24T11:45:21.543Z,1.30
2022-12-24T11:47:49.194Z,1.20
2022-12-24T11:50:32.979Z,1.50
2022-12-24T11:53:07.297Z,1.50
2022-12-24T11:55:57.590Z,1.40
2022-12-24T11:58:34.176Z,1.30
2022-12-24T12:01:17.152Z,1.30
2022-12-24T12:03:51.734Z,1.00
2022-12-24T12:06:31.510Z,1.27
2022-12-24T12:09:07.371Z,1.53
2022-12-24T12:11:38.533Z,1.23
2022-12-24T12:14:15.146Z,1.27
2022-12-24T12:17:01.508Z,1.20
2022-12-24T12:19:55.585Z,1.60
2022-12-24T12:22:29.922Z,2.00
2022-12-24T12:24:59.913Z,1.40
2022-12-24T12:27:46.608Z,1.63
2022-12-24T12:30:21.658Z,1.70
2022-12-24T12:33:03.026Z,1.57
2022-12-24T12:35:36.592Z,1.40
2022-12-24T12:38:21.972Z,1.47
2022-12-24T12:41:30.540Z,1.40
2022-12-24T12:43:58.062Z,1.80
2022-12-24T12:46:51.911Z,1.40
2022-12-24T12:49:33.026Z,1.63
2022-12-24T12:52:27.258Z,1.80
2022-12-24T12:55:24.166Z,1.30
2022-12-24T12:58:08.398Z,1.40
2022-12-24T13:00:39.499Z,1.73
2022-12-24T13:03:26.772Z,1.47
2022-12-24T13:06:13.597Z,1.37
2022-12-24T13:08:49.743Z,1.60
2022-12-24T13:11:51.915Z,1.83
2022-12-24T13:14:31.956Z,2.00
2022-12-24T13:17:12.547Z,1.73
2022-12-24T13:20:08.821Z,2.00
2022-12-24T13:22:37.482Z,1.87
2022-12-24T13:25:04.959Z,1.90
2022-12-24T13:27:34.981Z,2.03
2022-12-24T13:30:27.247Z,2.20
2022-12-24T13:32:55.355Z,2.27
2022-12-24T13:35:23.632Z,2.10
2022-12-24T13:37:52.404Z,2.27
2022-12-24T13:40:25.366Z,2.50
2022-12-24T13:42:59.444Z,2.43
2022-12-24T13:45:30.244Z,2.00
2022-12-24T13:47:58.680Z,2.53
2022-12-24T13:50:37.709Z,2.17
2022-12-24T13:53:18.632Z,2.23
2022-12-24T13:55:55.148Z,2.43
2022-12-24T13:58:24.075Z,2.70
2022-12-24T14:01:23.354Z,2.57
2022-12-24T14:03:54.677Z,2.70
2022-12-24T14:06:35.073Z,3.00
2022-12-24T14:09:07.608Z,2.80
2022-12-24T14:12:07.698Z,3.13
2022-12-24T14:14:41.529Z,2.70
2022-12-24T14:17:24.207Z,3.17
2022-12-24T14:19:59.108Z,2.80
2022-12-24T14:22:34.735Z,2.50
2022-12-24T14:25:16.402Z,2.67
2022-12-24T14:27:50.620Z,2.43
2022-12-24T14:30:22.318Z,2.93
2022-12-24T14:32:54.010Z,2.83
2022-12-24T14:35:24.095Z,2.73
2022-12-24T14:38:03.831Z,2.90
2022-12-24T14:40:34.835Z,3.13
2022-12-24T14:43:25.870Z,2.77
2022-12-24T14:46:16.078Z,3.03
2022-12-24T14:48:57.708Z,3.10
2022-12-24T14:51:56.146Z,2.53
2022-12-24T14:54:31.234Z,2.30
2022-12-24T14:57:14.317Z,2.70
2022-12-24T14:59:56.776Z,2.90
2022-12-24T15:02:47.376Z,2.67
2022-12-24T15:05:20.634Z,2.80
2022-12-24T15:07:58.096Z,3.17
2022-12-24T15:10:30.855Z,3.00
2022-12-24T15:13:03.805Z,2.97
2022-12-24T15:15:32.580Z,3.03
2022-12-24T15:18:00.184Z,3.20
2022-12-24T15:20:29.803Z,2.40
2022-12-24T15:23:00.471Z,2.70
2022-12-24T15:25:32.518Z,2.70
2022-12-24T15:28:00.112Z,2.80
2022-12-24T15:30:30.024Z,4.10
2022-12-24T15:32:58.737Z,2.80
2022-12-24T15:35:56.119Z,2.70
2022-12-24T15:38:30.434Z,2.97
2022-12-24T15:40:58.737Z,2.67
2022-12-24T15:43:26.395Z,2.70
2022-12-24T15:45:55.374Z,3.00
2022-12-24T15:48:32.794Z,2.73
2022-12-24T15:51:03.814Z,2.67
2022-12-24T15:53:35.971Z,2.43
2022-12-24T15:56:09.367Z,2.57
2022-12-24T15:58:40.960Z,2.53
2022-12-24T16:01:17.467Z,2.67
2022-12-24T16:03:50.676Z,2.70
2022-12-24T16:06:18.202Z,3.57
2022-12-24T16:08:47.970Z,3.63
2022-12-24T16:11:19.514Z,2.90
2022-12-24T16:13:51.483Z,2.60
2022-12-24T16:16:32.665Z,2.53
2022-12-24T16:19:03.658Z,2.73
2022-12-24T16:21:37.557Z,2.73
2022-12-24T16:24:19.035Z,2.77
2022-12-24T16:26:48.160Z,2.77
2022-12-24T16:29:19.452Z,3.60
2022-12-24T16:31:58.403Z,3.77
2022-12-24T16:34:29.150Z,5.63
2022-12-24T16:37:00.174Z,5.00
2022-12-24T16:39:33.930Z,3.03
2022-12-24T16:42:22.726Z,3.50
2022-12-24T16:44:53.395Z,3.20
2022-12-24T16:47:27.397Z,2.63
2022-12-24T16:49:54.453Z,3.00
2022-12-24T16:52:26.314Z,3.80
2022-12-24T16:54:56.710Z,3.40
2022-12-24T16:57:27.428Z,2.77
2022-12-24T16:59:55.102Z,3.77
2022-12-24T17:02:25.223Z,3.03
2022-12-24T17:04:55.031Z,3.30
2022-12-24T17:07:22.715Z,3.60
2022-12-24T17:09:51.152Z,3.50
2022-12-24T17:12:18.902Z,3.60
2022-12-24T17:14:46.499Z,3.30
2022-12-24T17:17:24.640Z,3.30
2022-12-24T17:19:53.337Z,3.57
2022-12-24T17:22:22.081Z,5.70
2022-12-24T17:24:50.736Z,5.67
2022-12-24T17:27:18.508Z,7.07
2022-12-24T17:29:46.855Z,6.03
2022-12-24T17:32:15.420Z,4.67
2022-12-24T17:34:43.776Z,4.63
2022-12-24T17:37:11.534Z,4.80
2022-12-24T17:39:39.119Z,4.20
2022-12-24T17:42:07.452Z,5.10
2022-12-24T17:44:35.250Z,4.10
2022-12-24T17:47:05.321Z,4.70
2022-12-24T17:49:33.502Z,4.67
2022-12-24T17:52:01.870Z,4.33
2022-12-24T17:54:31.186Z,4.23
2022-12-24T17:56:58.888Z,4.63
2022-12-24T17:59:26.578Z,4.83
2022-12-24T18:01:54.354Z,4.17
2022-12-24T18:04:22.711Z,3.67
2022-12-24T18:06:50.080Z,4.07
2022-12-24T18:09:18.774Z,3.27
2022-12-24T18:11:47.179Z,3.93
2022-12-24T18:14:16.947Z,3.17
2022-12-24T18:16:47.442Z,3.37
2022-12-24T18:19:15.378Z,3.47
2022-12-24T18:21:43.027Z,3.17
2022-12-24T18:24:12.195Z,3.10
2022-12-24T18:26:40.808Z,3.47
2022-12-24T18:29:09.809Z,3.03
2022-12-24T18:31:37.197Z,3.20
2022-12-24T18:34:07.584Z,3.23
2022-12-24T18:36:35.987Z,2.73
2022-12-24T18:39:03.354Z,3.67
2022-12-24T18:41:32.467Z,3.97
2022-12-24T18:44:00.332Z,3.23
2022-12-24T18:46:31.911Z,3.00
2022-12-24T18:49:01.081Z,3.50
2022-12-24T18:51:31.767Z,3.00
2022-12-24T18:54:02.684Z,2.60
2022-12-24T18:56:29.885Z,2.97
2022-12-24T18:59:01.028Z,3.47
2022-12-24T19:01:31.771Z,3.40
2022-12-24T19:04:00.595Z,3.03
2022-12-24T19:06:28.186Z,3.23
2022-12-24T19:08:57.919Z,3.20
2022-12-24T19:11:26.938Z,3.13
2022-12-24T19:13:55.199Z,3.60
2022-12-24T19:16:22.922Z,3.67
2022-12-24T19:18:51.253Z,3.63
2022-12-24T19:21:19.669Z,3.93
2022-12-24T19:23:47.423Z,3.27
2022-12-24T19:26:17.888Z,4.00
2022-12-24T19:28:47.299Z,3.77
2022-12-24T19:31:17.868Z,3.30
2022-12-24T19:33:49.190Z,3.47
2022-12-24T19:36:21.851Z,3.77
2022-12-24T19:38:50.330Z,3.60
2022-12-24T19:41:23.275Z,3.10
2022-12-24T19:43:54.990Z,3.73
2022-12-24T19:46:29.583Z,3.60
2022-12-24T19:49:00.327Z,3.87
2022-12-24T19:51:28.606Z,3.17
2022-12-24T19:53:58.455Z,3.07
2022-12-24T19:56:28.248Z,3.17
2022-12-24T19:58:57.806Z,3.30
2022-12-24T20:01:29.198Z,3.43
2022-12-24T20:03:57.224Z,3.00
2022-12-24T20:06:26.615Z,3.23
2022-12-24T20:09:07.557Z,3.87
2022-12-24T20:11:35.956Z,4.27
2022-12-24T20:14:05.719Z,3.47
2022-12-24T20:16:35.916Z,3.90
2022-12-24T20:19:06.994Z,3.70
2022-12-24T20:21:35.343Z,3.77
2022-12-24T20:24:04.827Z,3.80
2022-12-24T20:26:33.290Z,3.77
2022-12-24T20:29:06.317Z,3.27
2022-12-24T20:31:35.366Z,3.90
2022-12-24T20:34:05.452Z,3.90
2022-12-24T20:36:34.617Z,4.13
2022-12-24T20:39:02.353Z,4.00
2022-12-24T20:41:31.098Z,4.07
2022-12-24T20:44:00.425Z,4.53
2022-12-24T20:46:31.045Z,3.30
2022-12-24T20:48:59.784Z,3.67
2022-12-24T20:51:29.207Z,3.80
2022-12-24T20:53:59.466Z,3.90
2022-12-24T20:56:28.056Z,3.90
2022-12-24T20:58:58.360Z,3.60
2022-12-24T21:01:28.526Z,4.23
2022-12-24T21:03:58.655Z,3.97
2022-12-24T21:06:25.891Z,3.37
2022-12-24T21:08:55.287Z,4.07
2022-12-24T21:11:42.406Z,3.97
2022-12-24T21:14:09.813Z,4.20
2022-12-24T21:16:39.981Z,4.77
2022-12-24T21:19:11.613Z,4.37
2022-12-24T21:21:41.238Z,3.50
2022-12-24T21:24:09.710Z,4.43
2022-12-24T21:26:38.603Z,3.87
2022-12-24T21:29:08.272Z,4.23
2022-12-24T21:31:37.489Z,3.63
2022-12-24T21:34:04.611Z,4.13
2022-12-24T21:36:32.258Z,3.33
2022-12-24T21:39:00.554Z,3.80
2022-12-24T21:41:29.675Z,4.07
2022-12-24T21:44:01.024Z,4.43
2022-12-24T21:46:28.994Z,4.00
2022-12-24T21:49:16.675Z,4.57
2022-12-24T21:51:46.889Z,3.70
2022-12-24T21:54:27.386Z,4.33
2022-12-24T21:57:17.982Z,4.87
2022-12-24T22:04:10.117Z,4.37
2022-12-24T22:06:55.622Z,3.90
2022-12-24T22:09:41.590Z,3.97
2022-12-24T22:12:09.868Z,4.13
2022-12-24T22:14:36.803Z,4.53
2022-12-24T22:17:05.190Z,4.43
2022-12-24T22:19:34.790Z,4.43
2022-12-24T22:22:02.433Z,4.47
2022-12-24T22:24:29.975Z,4.97
2022-12-24T22:26:58.357Z,4.53
2022-12-24T22:29:25.944Z,4.63
2022-12-24T22:31:53.776Z,3.97
2022-12-24T22:34:22.169Z,4.10
2022-12-24T22:36:49.913Z,4.10
2022-12-24T22:39:17.476Z,3.97
2022-12-24T22:41:45.072Z,4.53
2022-12-24T22:44:13.416Z,4.13
2022-12-24T22:46:41.794Z,4.43
2022-12-24T22:49:10.810Z,3.20
2022-12-24T22:51:39.231Z,3.87
2022-12-24T22:54:06.906Z,4.10
2022-12-24T22:56:40.772Z,3.83
2022-12-24T22:59:12.623Z,3.73
2022-12-24T23:01:44.740Z,3.80
2022-12-24T23:04:14.381Z,3.63
2022-12-24T23:06:43.596Z,3.93
2022-12-24T23:09:15.808Z,4.43
2022-12-24T23:11:44.514Z,4.67
2022-12-24T23:14:38.882Z,4.63
2022-12-24T23:17:06.626Z,4.23
2022-12-24T23:19:35.297Z,4.13
2022-12-24T23:22:05.527Z,4.20
2022-12-24T23:24:34.983Z,4.00
2022-12-24T23:27:02.291Z,4.03
2022-12-24T23:29:31.762Z,4.77
2022-12-24T23:32:00.082Z,4.27
2022-12-24T23:34:28.002Z,4.80
2022-12-24T23:36:56.420Z,3.80
2022-12-24T23:39:25.963Z,4.63
2022-12-24T23:41:54.242Z,3.87
2022-12-24T23:44:25.478Z,4.20
2022-12-24T23:46:57.831Z,4.37
2022-12-24T23:49:26.388Z,4.90
2022-12-24T23:51:55.506Z,4.30
2022-12-24T23:54:24.524Z,3.87
2022-12-24T23:56:51.451Z,3.93
2022-12-24T23:59:19.175Z,3.70
